Time;durP1;ratioP1;P1;durP2;ratioP2;P2;SDS_P1;SDS_P2;PMS_P1;PMS_P2;Temp;Humidity;BMP_temperature;BMP_pressure;BME280_temperature;BME280_humidity;BME280_pressure;Samples;Min_cycle;Max_cycle;Signal;HPM_P1;HPM_P2
2021/01/09 00:01:40;;;;;;;29.75;18.48;;;;;;;0.05;80.12;99319.91;1688234;83;21726;-57
2021/01/09 00:04:08;;;;;;;29.55;19.62;;;;;;;0.16;79.86;99318.73;1709059;84;21180;-56
2021/01/09 00:06:39;;;;;;;30.77;19.45;;;;;;;0.17;79.78;99316.36;1663157;85;21719;-56
2021/01/09 00:09:07;;;;;;;32.00;19.60;;;;;;;0.10;80.01;99318.77;1674106;85;21137;-57
2021/01/09 00:11:36;;;;;;;27.67;18.82;;;;;;;0.03;80.22;99321.48;1672827;84;21176;-56
2021/01/09 00:14:03;;;;;;;29.10;19.00;;;;;;;0.11;80.07;99310.50;1671385;84;21185;-56
2021/01/09 00:16:31;;;;;;;30.65;19.17;;;;;;;0.11;80.06;99319.88;1670685;84;21149;-56
2021/01/09 00:18:59;;;;;;;32.53;21.10;;;;;;;0.02;80.33;99329.20;1674161;85;21172;-56
2021/01/09 00:21:38;;;;;;;27.35;18.57;;;;;;;0.01;80.45;99320.86;1658321;85;21149;-57
2021/01/09 00:24:08;;;;;;;28.47;18.82;;;;;;;0.14;80.16;99321.33;1672026;84;21580;-57
2021/01/09 00:26:36;;;;;;;30.80;20.72;;;;;;;0.11;80.20;99320.42;1672749;84;21194;-57
2021/01/09 00:29:04;;;;;;;29.80;19.20;;;;;;;0.03;80.48;99317.98;1643638;87;21173;-57
2021/01/09 00:31:33;;;;;;;28.27;18.15;;;;;;;0.01;80.60;99314.17;1659655;84;21193;-56
2021/01/09 00:34:00;;;;;;;27.30;18.57;;;;;;;0.12;80.31;99320.19;1656231;84;21212;-56
2021/01/09 00:36:28;;;;;;;31.20;20.88;;;;;;;0.09;80.43;99317.12;1670896;85;21297;-56
2021/01/09 00:38:55;;;;;;;27.82;18.30;;;;;;;0.04;80.64;99313.73;1677763;84;21196;-56
2021/01/09 00:41:31;;;;;;;30.48;19.65;;;;;;;0.06;80.62;99315.70;1673879;84;21638;-56
2021/01/09 00:43:59;;;;;;;28.20;16.97;;;;;;;0.18;80.34;99322.54;1674038;86;21204;-56
2021/01/09 00:46:26;;;;;;;29.00;17.60;;;;;;;0.14;80.48;99322.66;1673635;84;21164;-56
2021/01/09 00:48:54;;;;;;;27.98;18.60;;;;;;;0.06;80.76;99323.73;1673620;86;21169;-56
2021/01/09 00:51:22;;;;;;;25.90;17.80;;;;;;;0.07;80.71;99316.52;1674089;84;21224;-56
2021/01/09 00:53:49;;;;;;;26.00;17.87;;;;;;;0.20;80.45;99317.78;1674183;84;21616;-56
2021/01/09 00:56:17;;;;;;;28.67;19.70;;;;;;;0.18;80.48;99317.98;1673602;84;21228;-56
2021/01/09 00:58:45;;;;;;;30.10;20.05;;;;;;;0.08;80.74;99317.63;1674074;84;21314;-57
2021/01/09 01:01:12;;;;;;;26.93;18.95;;;;;;;0.06;80.88;99314.36;1673782;84;21672;-56
2021/01/09 01:03:42;;;;;;;26.27;17.60;;;;;;;0.18;80.62;99312.63;1673244;85;21613;-56
2021/01/09 01:06:10;;;;;;;33.10;20.95;;;;;;;0.15;80.68;99305.03;1667489;84;21201;-56
2021/01/09 01:08:38;;;;;;;28.98;18.77;;;;;;;0.08;80.92;99306.09;1677681;84;21165;-55
2021/01/09 01:11:06;;;;;;;29.02;18.35;;;;;;;0.08;81.07;99306.09;1670110;84;21173;-55
2021/01/09 01:13:33;;;;;;;26.77;18.30;;;;;;;0.20;80.75;99303.05;1687121;84;21287;-55
2021/01/09 01:16:01;;;;;;;29.87;20.40;;;;;;;0.19;80.75;99293.38;1687277;83;21196;-55
2021/01/09 01:18:29;;;;;;;29.10;19.12;;;;;;;0.12;80.95;99297.44;1678701;85;21168;-55
2021/01/09 01:20:57;;;;;;;28.85;18.92;;;;;;;0.17;80.88;99301.64;1686305;83;21350;-55
2021/01/09 01:23:24;;;;;;;25.68;16.32;;;;;;;0.28;80.57;99298.80;1686045;84;21138;-55
2021/01/09 01:25:52;;;;;;;29.30;18.60;;;;;;;0.23;80.69;99299.94;1685806;83;21234;-55
2021/01/09 01:28:19;;;;;;;35.20;22.13;;;;;;;0.15;80.95;99303.69;1685264;84;21193;-55
2021/01/09 01:30:49;;;;;;;32.23;19.95;;;;;;;0.21;80.83;99302.03;1691730;83;21624;-55
2021/01/09 01:33:16;;;;;;;32.65;21.25;;;;;;;0.28;80.65;99302.81;1686293;84;21171;-55
2021/01/09 01:35:44;;;;;;;32.38;21.17;;;;;;;0.21;80.84;99299.36;1677451;84;21136;-55
2021/01/09 01:38:12;;;;;;;33.63;21.07;;;;;;;0.15;81.01;99298.86;1674156;86;21185;-55
2021/01/09 01:40:39;;;;;;;31.05;19.98;;;;;;;0.22;80.85;99295.11;1685610;83;21196;-56
2021/01/09 01:43:11;;;;;;;31.45;20.25;;;;;;;0.26;80.71;99282.94;1690912;84;21193;-56
2021/01/09 01:45:40;;;;;;;33.13;20.02;;;;;;;0.23;80.87;99290.06;1686111;84;21620;-55
2021/01/09 01:48:09;;;;;;;34.35;22.42;;;;;;;0.18;81.03;99289.88;1687210;84;21314;-57
2021/01/09 01:50:39;;;;;;;32.08;22.05;;;;;;;0.23;80.94;99287.89;1691089;83;21707;-55
2021/01/09 01:53:08;;;;;;;33.38;20.68;;;;;;;0.31;80.72;99288.47;1643763;86;21319;-55
2021/01/09 01:55:35;;;;;;;32.10;20.57;;;;;;;0.28;80.81;99290.77;1681392;83;21887;-55
2021/01/09 01:58:03;;;;;;;34.30;22.40;;;;;;;0.24;80.94;99286.88;1648351;84;21144;-56
2021/01/09 02:00:31;;;;;;;31.48;20.37;;;;;;;0.27;80.83;99283.24;1674701;84;21628;-56
2021/01/09 02:03:00;;;;;;;28.23;18.50;;;;;;;0.38;80.51;99279.05;1679040;85;21255;-56
2021/01/09 02:05:32;;;;;;;32.25;21.37;;;;;;;0.32;80.64;99275.36;1691896;83;21748;-56
2021/01/09 02:08:01;;;;;;;30.27;19.70;;;;;;;0.27;80.86;99278.41;1685300;83;21348;-56
2021/01/09 02:10:28;;;;;;;32.20;21.12;;;;;;;0.22;80.96;99272.35;1693781;83;21192;-55
2021/01/09 02:13:05;;;;;;;29.30;19.62;;;;;;;0.31;80.72;99270.24;1683467;83;21343;-56
2021/01/09 02:15:33;;;;;;;28.95;19.65;;;;;;;0.34;80.66;99269.29;1656752;84;21381;-57
2021/01/09 02:18:00;;;;;;;32.15;20.00;;;;;;;0.26;80.87;99266.05;1688078;84;21161;-56
2021/01/09 02:20:28;;;;;;;29.80;20.40;;;;;;;0.21;81.00;99268.57;1701963;83;21172;-56
2021/01/09 02:22:56;;;;;;;34.55;22.58;;;;;;;0.31;80.77;99271.58;1665360;85;21305;-56
2021/01/09 02:25:23;;;;;;;32.67;21.02;;;;;;;0.37;80.67;99268.85;1679440;84;21190;-56
2021/01/09 02:27:50;;;;;;;33.78;22.48;;;;;;;0.34;80.78;99274.64;1679704;83;21660;-56
2021/01/09 02:30:31;;;;;;;28.73;19.75;;;;;;;0.30;80.92;99269.93;1684995;83;21208;-55
2021/01/09 02:33:09;;;;;;;33.20;22.82;;;;;;;0.32;80.91;99274.02;1695613;84;21141;-55
2021/01/09 02:35:39;;;;;;;33.38;22.20;;;;;;;0.42;80.56;99265.02;1696332;83;21616;-56
2021/01/09 02:38:06;;;;;;;32.73;20.82;;;;;;;0.44;80.49;99260.77;1696125;84;21338;-55
2021/01/09 02:40:40;;;;;;;35.33;22.60;;;;;;;0.37;80.72;99268.85;1701914;83;21225;-55
2021/01/09 02:43:12;;;;;;;35.60;22.25;;;;;;;0.32;80.86;99263.86;1695850;83;21347;-55
2021/01/09 02:45:40;;;;;;;25.48;17.15;;;;;;;0.36;80.77;99266.38;1696432;83;21757;-56
2021/01/09 02:48:09;;;;;;;29.65;19.70;;;;;;;0.45;80.49;99263.75;1696113;84;21371;-56
2021/01/09 02:50:36;;;;;;;30.08;20.43;;;;;;;0.37;80.63;99259.99;1694920;83;21314;-55
2021/01/09 02:53:03;;;;;;;32.53;21.77;;;;;;;0.29;80.89;99268.28;1690564;83;21133;-55
2021/01/09 03:03:58;;;;;;;34.50;21.02;;;;;;;0.30;81.17;99264.58;1758113;79;23025;-55
2021/01/09 03:06:26;;;;;;;33.18;20.88;;;;;;;0.25;81.32;99273.80;1723417;82;21354;-56
2021/01/09 03:08:54;;;;;;;37.90;25.37;;;;;;;0.37;80.95;99267.52;1710505;83;21153;-55
2021/01/09 03:11:22;;;;;;;33.15;22.70;;;;;;;0.42;80.87;99265.02;1696516;82;21198;-55
2021/01/09 03:13:50;;;;;;;33.20;22.15;;;;;;;0.40;81.04;99259.55;1694574;83;21291;-55
2021/01/09 03:16:17;;;;;;;37.15;23.07;;;;;;;0.38;81.13;99256.29;1699644;83;21198;-56
2021/01/09 03:18:44;;;;;;;31.05;20.80;;;;;;;0.41;81.01;99250.50;1722000;83;21148;-56
2021/01/09 03:21:13;;;;;;;32.33;22.30;;;;;;;0.55;80.59;99252.54;1721868;82;21196;-55
2021/01/09 03:23:40;;;;;;;36.38;23.65;;;;;;;0.55;80.55;99261.91;1720363;83;21581;-55
2021/01/09 03:26:07;;;;;;;34.38;22.70;;;;;;;0.45;80.71;99261.90;1722736;82;21637;-55
2021/01/09 03:28:35;;;;;;;32.67;21.82;;;;;;;0.37;80.92;99260.82;1703265;83;21302;-55
2021/01/09 03:31:03;;;;;;;34.67;23.22;;;;;;;0.45;80.71;99259.22;1695553;83;21222;-56
2021/01/09 03:33:31;;;;;;;34.83;21.93;;;;;;;0.49;80.59;99258.27;1694461;83;21180;-56
2021/01/09 03:35:59;;;;;;;30.45;20.48;;;;;;;0.44;80.85;99254.07;1694389;83;21364;-56
2021/01/09 03:38:26;;;;;;;34.13;22.02;;;;;;;0.41;80.97;99262.03;1700411;83;21319;-55
2021/01/09 03:40:54;;;;;;;30.82;21.55;;;;;;;0.45;80.86;99261.08;1722341;82;21357;-56
2021/01/09 03:43:21;;;;;;;28.25;18.15;;;;;;;0.59;80.51;99265.80;1722195;83;21200;-57
2021/01/09 03:45:48;;;;;;;28.25;19.35;;;;;;;0.57;80.53;99264.66;1720602;82;21593;-56
2021/01/09 03:48:16;;;;;;;33.42;22.73;;;;;;;0.48;80.73;99267.33;1717201;83;21138;-56
2021/01/09 03:50:45;;;;;;;33.05;21.80;;;;;;;0.41;80.92;99267.38;1720881;82;21133;-56
2021/01/09 03:53:13;;;;;;;32.83;21.40;;;;;;;0.48;80.81;99274.02;1721966;83;21628;-56
2021/01/09 03:55:41;;;;;;;30.55;20.77;;;;;;;0.60;80.56;99278.16;1694447;83;21287;-56
2021/01/09 03:58:09;;;;;;;33.45;22.10;;;;;;;0.54;80.69;99270.98;1713335;83;21165;-56
2021/01/09 04:00:36;;;;;;;36.30;22.95;;;;;;;0.46;80.85;99268.87;1722313;82;21165;-56
2021/01/09 04:03:04;;;;;;;34.85;22.07;;;;;;;0.45;80.94;99281.16;1722837;83;21576;-56
2021/01/09 04:05:31;;;;;;;31.10;21.27;;;;;;;0.56;80.65;99276.44;1723086;82;21181;-56
2021/01/09 04:07:59;;;;;;;30.32;20.37;;;;;;;0.59;80.54;99273.84;1720865;83;21608;-56
2021/01/09 04:10:26;;;;;;;29.77;18.95;;;;;;;0.50;80.74;99279.45;1718248;83;21311;-56
2021/01/09 04:12:53;;;;;;;32.42;21.57;;;;;;;0.41;80.98;99279.44;1721234;82;21133;-56
2021/01/09 04:15:21;;;;;;;34.90;22.00;;;;;;;0.47;80.92;99275.88;1709511;83;21172;-56
2021/01/09 04:17:48;;;;;;;32.40;21.35;;;;;;;0.54;80.72;99278.50;1699998;83;21189;-56
2021/01/09 04:20:15;;;;;;;30.12;20.77;;;;;;;0.44;80.92;99279.00;1694629;83;21617;-55
2021/01/09 04:22:43;;;;;;;32.03;21.60;;;;;;;0.41;81.15;99284.79;1694035;85;21604;-55
2021/01/09 04:25:12;;;;;;;27.90;18.75;;;;;;;0.45;80.99;99288.68;1694768;83;21319;-56
2021/01/09 04:27:39;;;;;;;32.48;21.60;;;;;;;0.54;80.66;99283.86;1701740;83;21188;-56
2021/01/09 04:30:28;;;;;;;32.17;21.17;;;;;;;0.46;80.80;99284.14;1699373;83;21632;-55
2021/01/09 04:32:56;;;;;;;33.08;21.15;;;;;;;0.41;81.09;99290.66;1678146;85;21306;-55
2021/01/09 04:35:23;;;;;;;34.03;22.10;;;;;;;0.38;81.19;99281.21;1675575;84;21182;-56
2021/01/09 04:37:50;;;;;;;30.57;19.27;;;;;;;0.53;80.90;99284.92;1672286;86;21186;-56
2021/01/09 04:40:17;;;;;;;34.70;23.07;;;;;;;0.53;80.85;99286.25;1657890;86;21179;-55
2021/01/09 04:42:45;;;;;;;35.75;22.73;;;;;;;0.45;81.12;99283.33;1644976;87;21218;-56
2021/01/09 04:45:13;;;;;;;32.45;21.10;;;;;;;0.39;81.33;99286.84;1599012;86;21163;-55
2021/01/09 04:47:40;;;;;;;31.48;21.10;;;;;;;0.44;81.28;99289.70;1661129;86;21642;-56
2021/01/09 04:50:09;;;;;;;33.90;23.80;;;;;;;0.50;81.20;99290.69;1654843;86;21147;-56
2021/01/09 04:52:37;;;;;;;33.48;22.15;;;;;;;0.41;81.37;99293.34;1650441;86;21232;-55
2021/01/09 04:55:06;;;;;;;33.38;22.15;;;;;;;0.32;81.74;99290.09;1593181;86;21685;-57
2021/01/09 04:57:34;;;;;;;29.00;18.77;;;;;;;0.35;81.74;99293.70;1645854;86;21945;-56
2021/01/09 05:00:06;;;;;;;30.45;19.55;;;;;;;0.43;81.57;99294.75;1650298;86;21476;-56
2021/01/09 05:02:36;;;;;;;35.50;21.70;;;;;;;0.36;81.82;99298.00;1660025;86;21391;-56
2021/01/09 05:05:06;;;;;;;31.60;21.50;;;;;;;0.29;82.14;99297.73;1664899;86;21272;-55
2021/01/09 05:07:34;;;;;;;30.68;21.12;;;;;;;0.34;82.05;99295.24;1672308;86;21194;-56
2021/01/09 05:10:05;;;;;;;35.15;21.77;;;;;;;0.35;82.06;99301.73;1645785;86;21184;-56
2021/01/09 05:12:36;;;;;;;31.93;20.88;;;;;;;0.26;82.44;99308.36;1629214;86;21758;-56
2021/01/09 05:15:06;;;;;;;36.73;23.70;;;;;;;0.25;82.51;99308.05;1666104;86;21181;-56
2021/01/09 05:17:38;;;;;;;30.17;20.77;;;;;;;0.31;82.33;99307.21;1665925;86;21215;-56
2021/01/09 05:20:08;;;;;;;32.50;20.92;;;;;;;0.28;82.53;99311.66;1662065;86;21285;-56
2021/01/09 05:22:37;;;;;;;36.80;24.10;;;;;;;0.23;82.83;99316.83;1670326;86;21178;-56
2021/01/09 05:25:07;;;;;;;35.63;23.32;;;;;;;0.32;82.63;99313.39;1670259;86;21610;-56
2021/01/09 05:27:35;;;;;;;34.78;22.82;;;;;;;0.35;82.54;99312.95;1633817;86;21234;-55
2021/01/09 05:30:04;;;;;;;33.78;21.33;;;;;;;0.25;82.77;99324.66;1661944;86;21199;-56
2021/01/09 05:32:31;;;;;;;35.48;22.22;;;;;;;0.29;82.82;99323.17;1623891;86;21228;-57
2021/01/09 05:34:59;;;;;;;36.05;23.00;;;;;;;0.36;82.52;99330.64;1671350;86;21720;-56
2021/01/09 05:37:26;;;;;;;27.90;18.40;;;;;;;0.33;82.64;99328.40;1655988;86;21213;-55
2021/01/09 05:39:57;;;;;;;37.08;25.43;;;;;;;0.29;82.78;99329.34;1657752;85;21618;-56
2021/01/09 05:42:27;;;;;;;33.02;22.55;;;;;;;0.32;82.64;99336.15;1642081;86;21207;-56
2021/01/09 05:44:57;;;;;;;37.55;24.23;;;;;;;0.40;82.37;99335.36;1669558;86;21210;-55
2021/01/09 05:47:27;;;;;;;35.50;22.37;;;;;;;0.33;82.51;99342.61;1656382;86;21657;-56
2021/01/09 05:49:57;;;;;;;36.28;22.55;;;;;;;0.26;82.74;99343.68;1654267;86;21256;-56
2021/01/09 05:52:27;;;;;;;36.08;21.93;;;;;;;0.34;82.55;99339.42;1668564;86;21221;-56
2021/01/09 05:54:58;;;;;;;32.83;20.57;;;;;;;0.37;82.45;99344.34;1645509;86;21631;-56
2021/01/09 05:57:31;;;;;;;36.00;22.82;;;;;;;0.30;82.70;99348.40;1655549;86;21186;-56
2021/01/09 06:00:01;;;;;;;39.30;24.92;;;;;;;0.28;82.69;99345.13;1658157;86;21210;-56
2021/01/09 06:02:48;;;;;;;37.38;24.92;;;;;;;0.38;82.36;99354.02;1658133;86;21174;-56
2021/01/09 06:05:15;;;;;;;39.35;24.72;;;;;;;0.36;82.44;99358.75;1653710;84;21182;-56
2021/01/09 06:07:43;;;;;;;38.78;24.32;;;;;;;0.29;82.66;99356.12;1635913;86;21210;-55
2021/01/09 06:10:12;;;;;;;40.20;26.35;;;;;;;0.30;82.63;99356.44;1604221;86;21227;-56
2021/01/09 06:12:50;;;;;;;35.43;22.52;;;;;;;0.41;82.28;99362.45;1615536;88;21361;-55
2021/01/09 06:15:24;;;;;;;40.05;24.92;;;;;;;0.43;82.26;99360.36;1801242;77;22988;-55
2021/01/09 06:17:52;;;;;;;37.13;23.90;;;;;;;0.30;82.39;99369.81;1765793;80;21161;-55
2021/01/09 06:20:20;;;;;;;36.17;25.02;;;;;;;0.34;82.36;99366.19;1712269;83;21173;-56
2021/01/09 06:22:47;;;;;;;41.90;25.85;;;;;;;0.41;82.06;99369.66;1697837;84;21649;-56
2021/01/09 06:25:15;;;;;;;37.98;24.80;;;;;;;0.35;82.21;99370.52;1705886;82;21473;-56
2021/01/09 06:27:42;;;;;;;35.90;24.50;;;;;;;0.26;82.47;99370.45;1679904;82;21185;-55
2021/01/09 06:30:11;;;;;;;36.53;23.30;;;;;;;0.30;82.39;99377.03;1695597;83;21751;-56
2021/01/09 06:32:39;;;;;;;41.68;24.63;;;;;;;0.34;82.20;99377.73;1735751;82;21146;-56
2021/01/09 06:35:08;;;;;;;42.03;27.37;;;;;;;0.28;82.36;99383.13;1728922;82;21144;-56
2021/01/09 06:37:35;;;;;;;36.38;23.15;;;;;;;0.23;82.54;99386.95;1727958;82;21238;-56
2021/01/09 06:40:05;;;;;;;36.33;23.67;;;;;;;0.32;82.35;99381.13;1723996;83;21161;-57
2021/01/09 06:42:32;;;;;;;40.48;26.07;;;;;;;0.35;82.28;99389.27;1717665;82;21295;-56
2021/01/09 06:45:01;;;;;;;42.70;26.33;;;;;;;0.29;82.43;99388.25;1721006;82;21592;-56
2021/01/09 06:47:30;;;;;;;34.65;22.27;;;;;;;0.29;82.51;99392.27;1695531;83;21189;-55
2021/01/09 06:50:21;;;;;;;37.08;23.77;;;;;;;0.42;82.16;99393.55;1708461;83;21247;-56
2021/01/09 06:53:00;;;;;;;43.28;27.37;;;;;;;0.43;82.13;99391.16;1695332;83;21169;-55
2021/01/09 06:55:43;;;;;;;44.40;26.30;;;;;;;0.37;82.37;99397.89;1737668;82;21259;-55
2021/01/09 06:58:10;;;;;;;40.15;25.37;;;;;;;0.39;82.33;99392.62;1743602;82;21138;-55
2021/01/09 07:00:38;;;;;;;40.05;25.25;;;;;;;0.53;82.01;99401.94;1697819;84;21134;-56
2021/01/09 07:03:12;;;;;;;40.95;27.07;;;;;;;0.50;81.98;99403.17;1715231;83;21213;-56
2021/01/09 07:05:49;;;;;;;41.75;27.02;;;;;;;0.43;82.17;99403.20;1707104;83;21662;-56
2021/01/09 07:08:22;;;;;;;39.30;24.90;;;;;;;0.42;82.19;99402.92;1719010;83;21177;-56
2021/01/09 07:10:56;;;;;;;42.50;27.05;;;;;;;0.56;81.87;99406.86;1706729;83;22055;-56
2021/01/09 07:13:24;;;;;;;41.40;24.77;;;;;;;0.52;81.92;99404.30;1704378;83;21157;-56
2021/01/09 07:16:11;;;;;;;39.85;24.40;;;;;;;0.45;82.07;99403.00;1771926;81;21170;-55
2021/01/09 07:18:46;;;;;;;40.92;24.52;;;;;;;0.54;81.99;99402.22;1746035;81;21296;-56
2021/01/09 07:21:16;;;;;;;42.67;27.62;;;;;;;0.61;81.60;99405.68;1742819;81;21731;-56
2021/01/09 07:23:55;;;;;;;39.40;24.70;;;;;;;0.56;81.86;99411.70;1724971;82;21190;-57
2021/01/09 07:26:24;;;;;;;38.90;25.40;;;;;;;0.52;82.14;99413.16;1741819;81;21291;-57
2021/01/09 07:28:52;;;;;;;39.53;26.25;;;;;;;0.58;81.98;99412.81;1740015;81;21161;-56
2021/01/09 07:31:24;;;;;;;35.98;23.98;;;;;;;0.60;81.94;99422.81;1756571;81;21573;-56
2021/01/09 07:33:57;;;;;;;44.48;28.27;;;;;;;0.51;82.21;99418.20;1698769;84;21167;-55
2021/01/09 07:36:28;;;;;;;40.65;25.80;;;;;;;0.48;82.48;99415.45;1743191;81;21159;-56
2021/01/09 07:39:03;;;;;;;41.28;26.40;;;;;;;0.60;82.25;99416.11;1761281;81;21142;-55
2021/01/09 07:41:35;;;;;;;39.53;24.90;;;;;;;0.63;82.25;99418.36;1741590;81;21575;-56
2021/01/09 07:44:11;;;;;;;45.12;27.55;;;;;;;0.56;82.49;99416.23;1741257;82;21182;-55
2021/01/09 07:46:56;;;;;;;44.75;27.62;;;;;;;0.53;82.78;99421.52;1740606;81;21146;-55
2021/01/09 07:49:30;;;;;;;36.95;24.35;;;;;;;0.61;82.50;99419.07;1741254;82;21594;-56
2021/01/09 07:52:02;;;;;;;41.28;25.27;;;;;;;0.67;82.27;99416.89;1739966;82;21366;-56
2021/01/09 07:54:47;;;;;;;41.45;26.42;;;;;;;0.61;82.45;99425.77;1742933;80;21190;-55
2021/01/09 07:57:25;;;;;;;37.88;23.95;;;;;;;0.59;82.54;99427.34;1750936;81;21158;-56
2021/01/09 08:00:01;;;;;;;38.80;24.27;;;;;;;0.67;82.16;99427.09;1749641;81;21291;-55
2021/01/09 08:02:35;;;;;;;44.15;27.87;;;;;;;0.60;82.34;99419.62;1740612;81;21154;-56
2021/01/09 08:05:19;;;;;;;37.28;24.72;;;;;;;0.56;82.59;99428.29;1752716;81;21166;-56
2021/01/09 08:07:55;;;;;;;42.10;27.27;;;;;;;0.66;82.39;99424.10;1742554;81;21405;-56
2021/01/09 08:10:31;;;;;;;43.05;26.33;;;;;;;0.72;82.22;99429.94;1742340;82;21636;-56
2021/01/09 08:13:05;;;;;;;39.53;25.88;;;;;;;0.68;82.39;99428.72;1760633;81;21739;-56
2021/01/09 08:15:35;;;;;;;37.93;24.10;;;;;;;0.72;82.11;99430.45;1755526;80;21383;-56
2021/01/09 08:18:06;;;;;;;43.73;27.22;;;;;;;0.82;81.90;99429.45;1770143;80;21122;-54
2021/01/09 08:20:34;;;;;;;42.60;26.90;;;;;;;0.79;81.80;99432.05;1780873;80;21189;-56
2021/01/09 08:23:04;;;;;;;38.85;25.62;;;;;;;0.79;81.95;99433.91;1705401;83;21572;-55
2021/01/09 08:25:35;;;;;;;41.18;26.80;;;;;;;0.93;81.45;99430.09;1702729;84;21299;-55
2021/01/09 08:28:04;;;;;;;41.35;26.25;;;;;;;0.92;81.11;99432.50;1734024;82;21173;-54
2021/01/09 08:30:33;;;;;;;40.00;26.07;;;;;;;0.89;81.02;99429.71;1721882;82;21683;-55
2021/01/09 08:33:12;;;;;;;34.80;22.65;;;;;;;1.02;80.42;99432.01;1738527;82;21165;-55
2021/01/09 08:35:52;;;;;;;39.30;24.72;;;;;;;1.04;80.46;99430.74;1718323;83;21212;-56
2021/01/09 08:38:27;;;;;;;39.20;24.90;;;;;;;0.96;80.02;99429.14;1717387;83;21166;-56
2021/01/09 08:40:58;;;;;;;34.67;22.17;;;;;;;1.02;80.20;99424.80;1719869;82;21161;-55
2021/01/09 08:43:26;;;;;;;43.65;27.80;;;;;;;1.09;79.43;99424.73;1718565;82;21158;-55
2021/01/09 08:45:54;;;;;;;36.60;23.15;;;;;;;1.04;79.87;99424.05;1718070;82;21388;-57
2021/01/09 08:48:26;;;;;;;36.10;22.73;;;;;;;1.10;79.85;99428.52;1717372;82;21173;-56
2021/01/09 08:51:11;;;;;;;31.93;21.12;;;;;;;1.27;79.30;99424.28;1695388;83;21324;-56
2021/01/09 08:53:59;;;;;;;36.10;23.62;;;;;;;1.27;78.50;99420.27;1700432;83;21300;-55
2021/01/09 08:56:28;;;;;;;33.28;21.80;;;;;;;1.20;78.89;99422.18;1689334;85;21633;-56
2021/01/09 09:00:29;;;;;;;31.82;22.07;;;;;;;1.42;78.33;99408.66;1758496;79;22929;-55
2021/01/09 09:02:56;;;;;;;31.23;20.15;;;;;;;1.33;78.30;99410.50;1666935;83;21161;-56
2021/01/09 09:05:29;;;;;;;31.12;19.30;;;;;;;1.29;77.58;99410.64;1666223;83;21173;-55
2021/01/09 09:07:57;;;;;;;30.80;21.37;;;;;;;1.40;77.40;99406.73;1709714;83;21319;-55
2021/01/09 09:10:26;;;;;;;30.52;20.72;;;;;;;1.44;77.42;99403.91;1681558;83;21173;-56
2021/01/09 09:12:53;;;;;;;30.23;19.75;;;;;;;1.41;77.28;99406.21;1709320;83;21164;-55
2021/01/09 09:15:30;;;;;;;32.20;20.88;;;;;;;1.41;77.37;99407.03;1696997;83;21306;-56
2021/01/09 09:17:57;;;;;;;35.70;22.62;;;;;;;1.54;76.64;99406.59;1699862;83;21132;-55
2021/01/09 09:20:25;;;;;;;32.08;19.90;;;;;;;1.49;76.79;99404.56;1692968;83;21204;-57
2021/01/09 09:22:52;;;;;;;31.75;20.70;;;;;;;1.37;76.21;99398.30;1693598;83;21620;-57
2021/01/09 09:25:25;;;;;;;28.87;19.85;;;;;;;1.38;76.33;99395.38;1697275;83;21141;-56
2021/01/09 09:28:02;;;;;;;31.48;20.75;;;;;;;1.40;76.29;99397.34;1701062;83;21160;-56
2021/01/09 09:30:30;;;;;;;31.45;21.30;;;;;;;1.37;76.68;99389.73;1714528;82;21751;-54
2021/01/09 09:33:10;;;;;;;33.95;21.90;;;;;;;1.39;76.15;99396.20;1717648;82;21130;-55
2021/01/09 09:35:39;;;;;;;31.07;19.98;;;;;;;1.49;75.63;99396.00;1713941;82;21174;-55
2021/01/09 09:38:10;;;;;;;35.40;23.02;;;;;;;1.48;76.08;99393.04;1702722;83;21306;-56
2021/01/09 09:40:39;;;;;;;32.42;21.80;;;;;;;1.48;76.32;99387.67;1705114;83;21168;-55
2021/01/09 09:43:14;;;;;;;30.32;19.82;;;;;;;1.60;75.92;99386.91;1708854;83;21144;-56
2021/01/09 09:46:04;;;;;;;32.33;21.87;;;;;;;1.73;74.46;99386.80;1718347;82;21623;-57
2021/01/09 09:48:35;;;;;;;28.95;20.35;;;;;;;1.65;74.55;99378.52;1732776;82;21181;-55
2021/01/09 09:51:08;;;;;;;31.90;19.92;;;;;;;1.53;74.61;99380.80;1697100;83;21188;-55
2021/01/09 09:53:35;;;;;;;27.37;18.07;;;;;;;1.53;74.28;99378.11;1669334;83;21791;-57
2021/01/09 09:56:16;;;;;;;30.23;19.62;;;;;;;1.59;73.97;99380.75;1719189;83;21535;-55
2021/01/09 09:58:43;;;;;;;32.70;20.92;;;;;;;1.50;73.66;99373.51;1710595;83;21706;-56
2021/01/09 10:01:18;;;;;;;30.25;19.20;;;;;;;1.41;73.77;99372.17;1703798;83;21441;-55
2021/01/09 10:03:46;;;;;;;30.68;18.92;;;;;;;1.40;73.24;99381.77;1703659;82;21684;-56
2021/01/09 10:06:16;;;;;;;29.35;19.95;;;;;;;1.47;72.48;99377.98;1705700;83;21307;-56
2021/01/09 10:08:43;;;;;;;27.75;18.32;;;;;;;1.48;72.72;99380.14;1700429;83;21240;-56
2021/01/09 10:11:10;;;;;;;30.95;20.52;;;;;;;1.49;73.27;99374.54;1694417;83;21217;-55
2021/01/09 10:13:38;;;;;;;32.50;21.12;;;;;;;1.57;73.55;99373.44;1704348;83;21185;-55
2021/01/09 10:16:06;;;;;;;28.62;19.67;;;;;;;1.75;72.80;99376.13;1693532;85;21538;-56
2021/01/09 10:18:35;;;;;;;33.33;22.85;;;;;;;1.78;72.27;99370.31;1718354;82;21712;-56
2021/01/09 10:21:03;;;;;;;32.83;21.45;;;;;;;1.73;72.02;99372.04;1675055;84;21311;-56
2021/01/09 10:23:31;;;;;;;30.80;19.02;;;;;;;1.67;72.32;99367.55;1675969;85;21185;-56
2021/01/09 10:25:58;;;;;;;31.70;21.75;;;;;;;1.77;71.95;99372.69;1705975;83;21184;-56
2021/01/09 10:28:26;;;;;;;31.60;20.15;;;;;;;1.77;72.15;99363.30;1710675;83;21579;-57
2021/01/09 10:30:54;;;;;;;30.68;20.10;;;;;;;1.73;71.91;99368.84;1705844;83;21204;-57
2021/01/09 10:33:21;;;;;;;31.68;21.17;;;;;;;1.72;72.14;99372.55;1690675;83;21716;-57
2021/01/09 10:35:50;;;;;;;29.45;19.45;;;;;;;1.82;71.34;99366.66;1703403;82;21310;-57
2021/01/09 10:38:17;;;;;;;27.15;17.40;;;;;;;1.87;71.38;99368.16;1692920;83;21474;-57
2021/01/09 10:40:46;;;;;;;32.40;20.75;;;;;;;1.83;70.98;99370.99;1722434;83;21161;-57
2021/01/09 10:43:13;;;;;;;29.82;19.87;;;;;;;1.77;70.42;99366.53;1703760;83;21311;-57
2021/01/09 10:45:41;;;;;;;29.72;18.75;;;;;;;1.82;71.07;99369.34;1697839;83;21202;-56
2021/01/09 10:48:08;;;;;;;31.07;20.80;;;;;;;1.79;70.25;99365.77;1670347;85;21157;-57
2021/01/09 10:50:36;;;;;;;32.23;20.70;;;;;;;1.77;69.61;99371.89;1671372;83;21363;-57
2021/01/09 10:53:05;;;;;;;31.25;20.62;;;;;;;1.71;70.51;99366.05;1709736;83;21157;-57
2021/01/09 10:55:34;;;;;;;31.35;20.05;;;;;;;1.73;69.80;99366.16;1721604;83;21189;-56
2021/01/09 10:58:01;;;;;;;30.55;19.17;;;;;;;1.69;68.90;99364.13;1722627;83;21146;-56
2021/01/09 11:00:29;;;;;;;32.30;19.37;;;;;;;1.67;68.95;99367.55;1698862;83;21703;-56
2021/01/09 11:02:57;;;;;;;27.48;17.77;;;;;;;1.66;68.92;99365.92;1726538;83;21185;-56
2021/01/09 11:05:29;;;;;;;28.15;18.42;;;;;;;1.65;68.93;99361.08;1685089;84;21220;-56
2021/01/09 11:07:54;;;;;;;32.63;19.15;;;;;;;1.68;68.22;99359.80;1705619;83;21145;-57
2021/01/09 11:10:22;;;;;;;27.95;18.05;;;;;;;1.65;68.14;99354.88;1662964;84;21317;-56
2021/01/09 11:12:51;;;;;;;30.43;19.62;;;;;;;1.72;68.04;99356.45;1654341;86;21176;-56
2021/01/09 11:15:19;;;;;;;32.40;19.20;;;;;;;1.67;68.00;99346.91;1661529;84;21163;-57
2021/01/09 11:17:46;;;;;;;28.65;19.67;;;;;;;1.65;67.97;99348.17;1643378;84;21620;-56
2021/01/09 11:20:15;;;;;;;27.45;18.27;;;;;;;1.57;67.73;99354.66;1691787;84;21372;-57
2021/01/09 11:22:42;;;;;;;28.83;18.70;;;;;;;1.52;68.34;99365.77;1668943;84;21188;-57
2021/01/09 11:25:11;;;;;;;29.20;18.52;;;;;;;1.48;68.47;99366.22;1680743;84;21659;-57
2021/01/09 11:27:40;;;;;;;29.90;18.90;;;;;;;1.44;67.92;99359.65;1695367;84;21766;-56
2021/01/09 11:30:11;;;;;;;26.77;16.93;;;;;;;1.40;68.04;99362.47;1679406;84;21636;-56
2021/01/09 11:32:38;;;;;;;32.65;21.65;;;;;;;1.34;67.69;99355.32;1695097;84;21347;-56
2021/01/09 11:35:29;;;;;;;25.92;17.32;;;;;;;1.32;67.60;99359.24;1636580;86;21207;-56
2021/01/09 11:37:57;;;;;;;25.75;16.87;;;;;;;1.35;67.41;99356.11;1661016;84;21244;-54
2021/01/09 11:40:28;;;;;;;25.72;16.62;;;;;;;1.28;67.55;99361.55;1702822;82;21628;-56
2021/01/09 11:42:55;;;;;;;26.40;17.48;;;;;;;1.35;67.73;99367.66;1722985;82;21156;-56
2021/01/09 11:45:23;;;;;;;25.43;17.17;;;;;;;1.37;68.08;99365.60;1729008;82;21172;-57
2021/01/09 11:47:50;;;;;;;26.00;17.07;;;;;;;1.44;68.02;99370.89;1718527;80;21363;-57